Weather History for Peru, IL

Change the Weather History Date:

Wednesday, October 6, 2010

  Actual Average Record
Temperature  
Mean Temperature 61 °F -  
Max Temperature 80 °F 66 °F 91 °F (1963)
Min Temperature 42 °F 43 °F 29 °F (1988)
Degree Days  
Heating Degree Days 4    
Growing Degree Days 11 (Base 50)    
Moisture  
Dew Point 43 °F    
Average Humidity 59    
Maximum Humidity 90    
Minimum Humidity 29    
Precipitation  
Precipitation 0.00 in - - ()
Sea Level Pressure  
Sea Level Pressure 30.15 in    
Wind  
Wind Speed 5 mph (West)    
Max Wind Speed 18 mph    
Max Gust Speed 26 mph    
Visibility 10 miles    
Events      
Averages and records for this station are not official NWS values.
T = Trace of Precipitation, MM = Missing Value Source: NWS Daily Summary

Daily Weather History Graph

Daily Weather History Graph

Search for Another Location

Airport:

Trip Planner

Search our weather history database for the weather conditions in past years. The results will help you decide how hot, cold, wet, or windy it might be!

Date:

Astronomy

Oct. 06, 2010 Rise Set
Actual Time 6:58 AM CDT 6:30 PM CDT
Civil Twilight 6:30 AM CDT 6:57 PM CDT
Nautical Twilight 5:58 AM CDT 7:29 PM CDT
Astronomical Twilight 5:26 AM CDT 8:01 PM CDT
Moon 5:34 AM CDT (10/6) 5:33 PM CDT (10/6)
Length of Visible Light 12h 26m
Length of Day
11h 31m
Waning Crescent, 2% of the Moon is Illuminated
Oct 6
Waning Crescent
Oct 7
New
Oct 14
First Quarter
Oct 22
Full
Oct 30
Last Quarter

Hourly Weather History & Observations

Time (CDT) Temp. Windchill Dew Point Humidity Pressure Visibility Wind Dir Wind Speed Gust Speed Precip Events Conditions
12:03 AM 50.0 °F - 36.3 °F 59% 30.28 in 10.0 mi Calm Calm - N/A   Clear
12:23 AM 47.8 °F - 36.1 °F 64% 30.27 in 10.0 mi West 3.5 mph - N/A   Clear
12:43 AM 47.3 °F - 37.6 °F 69% 30.27 in 10.0 mi Calm Calm - N/A   Clear
1:03 AM 46.4 °F - 36.7 °F 69% 30.27 in 10.0 mi Calm Calm - N/A   Clear
1:23 AM 47.5 °F - 38.5 °F 71% 30.27 in 10.0 mi Calm Calm - N/A   Clear
1:43 AM 46.6 °F - 38.3 °F 73% 30.26 in 10.0 mi West 3.5 mph - N/A   Clear
2:03 AM 44.4 °F 42.0 °F 37.6 °F 77% 30.25 in 10.0 mi West 4.6 mph - N/A   Clear
2:23 AM 44.4 °F 41.2 °F 39.2 °F 82% 30.25 in 10.0 mi West 5.8 mph - N/A   Clear
2:43 AM 45.0 °F 42.6 °F 40.6 °F 85% 30.25 in 10.0 mi West 4.6 mph - N/A   Clear
3:03 AM 44.8 °F 42.4 °F 41.0 °F 87% 30.25 in 10.0 mi West 4.6 mph - N/A   Clear
3:23 AM 45.1 °F 43.7 °F 41.4 °F 87% 30.24 in 10.0 mi West 3.5 mph - N/A   Clear
3:43 AM 44.2 °F 41.8 °F 40.8 °F 88% 30.24 in 10.0 mi West 4.6 mph - N/A   Clear
4:03 AM 44.4 °F - 41.2 °F 88% 30.24 in 10.0 mi Calm Calm - N/A   Clear
4:23 AM 44.1 °F 42.5 °F 40.6 °F 88% 30.24 in 10.0 mi West 3.5 mph - N/A   Clear
4:43 AM 43.7 °F - 40.8 °F 90% 30.24 in 10.0 mi Calm Calm - N/A   Clear
5:03 AM 44.2 °F 42.7 °F 40.6 °F 87% 30.23 in 10.0 mi West 3.5 mph - N/A   Clear
5:23 AM 43.0 °F 41.3 °F 39.7 °F 88% 30.24 in 10.0 mi West 3.5 mph - N/A   Clear
5:43 AM 43.9 °F 42.3 °F 39.4 °F 84% 30.24 in 10.0 mi West 3.5 mph - N/A   Clear
6:03 AM 43.0 °F 39.5 °F 39.6 °F 88% 30.24 in 10.0 mi West 5.8 mph - N/A   Clear
6:23 AM 42.6 °F 40.9 °F 39.2 °F 88% 30.23 in 10.0 mi WSW 3.5 mph - N/A   Clear
6:43 AM 42.6 °F 39.0 °F 39.4 °F 88% 30.23 in 10.0 mi West 5.8 mph - N/A   Clear
7:03 AM 43.2 °F 41.5 °F 40.1 °F 89% 30.23 in 10.0 mi WSW 3.5 mph - N/A   Clear
7:23 AM 43.2 °F 40.5 °F 40.1 °F 89% 30.21 in 10.0 mi WSW 4.6 mph - N/A   Clear
7:43 AM 43.9 °F - 40.3 °F 87% 30.21 in 10.0 mi Calm Calm - N/A   Clear
8:03 AM 45.5 °F - 41.9 °F 87% 30.21 in 10.0 mi Calm Calm - N/A   Clear
8:23 AM 48.9 °F - 43.7 °F 82% 30.20 in 10.0 mi WSW 3.5 mph - N/A   Clear
8:43 AM 52.5 °F - 44.4 °F 74% 30.19 in 10.0 mi WSW 5.8 mph - N/A   Clear
9:03 AM 54.3 °F - 44.4 °F 69% 30.19 in 10.0 mi West 5.8 mph - N/A   Clear
9:23 AM 57.2 °F - 44.6 °F 63% 30.18 in 10.0 mi WSW 4.6 mph - N/A   Clear
9:43 AM 59.9 °F - 43.9 °F 55% 30.18 in 10.0 mi West 9.2 mph - N/A   Clear
10:03 AM 61.3 °F - 44.2 °F 53% 30.18 in 10.0 mi West 6.9 mph - N/A   Clear
10:23 AM 63.0 °F - 44.8 °F 51% 30.17 in 10.0 mi West 10.4 mph - N/A   Clear
10:43 AM 65.3 °F - 45.3 °F 48% 30.16 in 10.0 mi West 6.9 mph - N/A   Clear
11:03 AM 66.9 °F - 45.7 °F 46% 30.16 in 10.0 mi West 8.1 mph - N/A   Clear
11:22 AM 68.2 °F - 45.9 °F 45% 30.15 in 10.0 mi West 8.1 mph - N/A   Clear
11:43 AM 69.6 °F - 45.7 °F 42% 30.14 in 10.0 mi WSW 5.8 mph - N/A   Clear
12:03 PM 72.0 °F - 45.5 °F 39% 30.13 in 10.0 mi West 9.2 mph - N/A   Clear
12:23 PM 73.2 °F - 45.5 °F 37% 30.12 in 10.0 mi WSW 9.2 mph - N/A   Clear
12:43 PM 74.8 °F - 45.5 °F 35% 30.11 in 10.0 mi WSW 8.1 mph - N/A   Clear
1:03 PM 76.1 °F - 45.0 °F 33% 30.09 in 10.0 mi WSW 10.4 mph - N/A   Clear
1:23 PM 77.2 °F - 44.6 °F 31% 30.07 in 10.0 mi SW 12.7 mph 18.4 mph N/A   Clear
1:43 PM 78.1 °F - 45.0 °F 31% 30.06 in 10.0 mi WSW 10.4 mph - N/A   Clear
2:03 PM 78.4 °F - 45.0 °F 30% 30.05 in 10.0 mi WSW 11.5 mph 17.3 mph N/A   Clear
2:23 PM 78.6 °F - 45.1 °F 31% 30.04 in 10.0 mi West 12.7 mph 19.6 mph N/A   Clear
2:43 PM 79.5 °F - 45.7 °F 30% 30.03 in 10.0 mi West 16.1 mph 20.7 mph N/A   Clear
3:03 PM 80.8 °F - 46.2 °F 30% 30.03 in 10.0 mi West 16.1 mph 25.3 mph N/A   Clear
3:22 PM 80.8 °F - 46.0 °F 29% 30.01 in 10.0 mi West 18.4 mph 25.3 mph N/A   Clear
3:43 PM 80.4 °F - 45.7 °F 29% 30.01 in 10.0 mi West 18.4 mph 26.5 mph N/A   Clear
4:02 PM 80.8 °F - 45.9 °F 29% 30.00 in 10.0 mi West 13.8 mph 25.3 mph N/A   Clear
4:23 PM 80.1 °F - 46.4 °F 31% 30.00 in 10.0 mi West 16.1 mph 26.5 mph N/A   Clear
4:43 PM 79.2 °F - 46.6 °F 32% 29.99 in 10.0 mi West 15.0 mph 21.9 mph N/A   Clear
5:03 PM 78.8 °F - 46.6 °F 32% 29.99 in 10.0 mi West 15.0 mph - N/A   Clear
5:23 PM 78.1 °F - 46.4 °F 33% 29.98 in 10.0 mi WSW 11.5 mph - N/A   Clear
5:43 PM 76.6 °F - 47.8 °F 36% 29.99 in 10.0 mi West 9.2 mph - N/A   Clear
6:03 PM 75.6 °F - 48.2 °F 38% 29.98 in 10.0 mi West 11.5 mph - N/A   Clear
6:23 PM 73.6 °F - 48.2 °F 41% 29.98 in 10.0 mi West 11.5 mph - N/A   Clear
6:43 PM 72.0 °F - 48.4 °F 43% 29.98 in 10.0 mi West 10.4 mph - N/A   Clear
7:03 PM 70.7 °F - 48.9 °F 46% 29.98 in 10.0 mi West 10.4 mph - N/A   Clear
7:23 PM 69.3 °F - 49.1 °F 49% 29.99 in 10.0 mi West 10.4 mph - N/A   Clear
7:43 PM 68.0 °F - 49.5 °F 51% 29.98 in 10.0 mi West 11.5 mph - N/A   Clear
8:03 PM 67.3 °F - 49.6 °F 53% 29.99 in 10.0 mi West 8.1 mph - N/A   Clear
8:23 PM 67.5 °F - 50.0 °F 53% 29.99 in 10.0 mi West 8.1 mph - N/A   Clear
8:43 PM 67.8 °F - 50.5 °F 54% 29.99 in 10.0 mi WNW 9.2 mph - N/A   Clear
9:03 PM 66.0 °F - 50.4 °F 57% 30.00 in 10.0 mi WNW 8.1 mph - N/A   Clear
9:23 PM 64.4 °F - 50.4 °F 60% 30.00 in 10.0 mi WNW 9.2 mph - N/A   Clear
9:43 PM 61.5 °F - 50.0 °F 66% 30.00 in 10.0 mi NW 9.2 mph - N/A   Clear
10:03 PM 61.2 °F - 50.4 °F 68% 30.00 in 10.0 mi NW 10.4 mph - N/A   Clear
10:23 PM 60.1 °F - 50.5 °F 71% 30.01 in 10.0 mi NW 8.1 mph - N/A   Clear
10:43 PM 60.1 °F - 50.7 °F 71% 30.01 in 10.0 mi NW 6.9 mph - N/A   Clear
11:03 PM 57.6 °F - 49.5 °F 74% 30.01 in 10.0 mi NW 8.1 mph - N/A   Clear
11:23 PM 57.2 °F - 49.5 °F 75% 30.02 in 10.0 mi NW 9.2 mph - N/A   Clear
11:43 PM 56.8 °F - 49.3 °F 76% 30.02 in 10.0 mi NW 8.1 mph - N/A   Clear